createdAt,value
2019-05-17T00:00:37.405Z,38.57
2019-05-17T00:03:06.811Z,36.97
2019-05-17T00:05:37.134Z,36.37
2019-05-17T00:08:04.712Z,39.17
2019-05-17T00:10:32.627Z,35.37
2019-05-17T00:13:00.565Z,32.30
2019-05-17T00:15:29.358Z,34.37
2019-05-17T00:17:57.220Z,34.47
2019-05-17T00:20:26.623Z,36.13
2019-05-17T00:22:54.556Z,35.77
2019-05-17T00:25:22.358Z,39.00
2019-05-17T00:27:50.120Z,39.43
2019-05-17T00:30:18.116Z,38.23
2019-05-17T00:32:47.607Z,39.30
2019-05-17T00:35:17.824Z,36.17
2019-05-17T00:37:46.488Z,35.00
2019-05-17T00:40:16.678Z,34.30
2019-05-17T00:42:46.606Z,30.03
2019-05-17T00:45:17.304Z,31.13
2019-05-17T00:47:46.865Z,33.23
2019-05-17T00:50:17.078Z,26.90
2019-05-17T00:52:47.519Z,28.80
2019-05-17T00:55:17.427Z,28.90
2019-05-17T00:57:47.239Z,26.60
2019-05-17T01:00:17.031Z,26.00
2019-05-17T01:02:46.756Z,25.80
2019-05-17T01:05:17.099Z,25.73
2019-05-17T01:07:47.041Z,25.57
2019-05-17T01:10:16.659Z,24.43
2019-05-17T01:12:44.642Z,25.80
2019-05-17T01:15:12.729Z,24.53
2019-05-17T01:17:41.025Z,22.37
2019-05-17T01:20:09.560Z,24.07
2019-05-17T01:22:37.411Z,21.43
2019-05-17T01:25:06.398Z,23.77
2019-05-17T01:27:34.383Z,22.27
2019-05-17T01:30:02.512Z,20.63
2019-05-17T01:32:30.246Z,19.53
2019-05-17T01:34:58.032Z,19.97
2019-05-17T01:37:27.690Z,23.20
2019-05-17T01:39:57.402Z,18.70
2019-05-17T01:42:26.518Z,22.90
2019-05-17T01:44:56.618Z,21.27
2019-05-17T01:47:24.337Z,21.90
2019-05-17T01:49:52.118Z,22.40
2019-05-17T01:52:20.235Z,22.50
2019-05-17T01:54:47.948Z,20.73
2019-05-17T01:57:16.821Z,17.80
2019-05-17T01:59:46.675Z,16.40
2019-05-17T02:02:18.506Z,16.60
2019-05-17T02:04:46.761Z,14.67
2019-05-17T02:07:17.156Z,15.73
2019-05-17T02:09:44.557Z,14.67
2019-05-17T02:12:13.350Z,15.73
2019-05-17T02:14:41.078Z,14.17
2019-05-17T02:17:08.952Z,15.43
2019-05-17T02:19:37.362Z,16.90
2019-05-17T02:22:07.299Z,18.13
2019-05-17T02:24:37.003Z,22.13
2019-05-17T02:27:04.648Z,21.93
2019-05-17T02:29:32.467Z,19.27
2019-05-17T02:32:03.703Z,17.77
2019-05-17T02:34:33.471Z,15.70
2019-05-17T02:37:02.724Z,15.53
2019-05-17T02:39:32.488Z,14.63
2019-05-17T02:42:02.556Z,14.07
2019-05-17T02:44:33.157Z,15.53
2019-05-17T02:46:59.100Z,17.27
2019-05-17T02:49:26.807Z,15.10
2019-05-17T02:51:54.629Z,17.67
2019-05-17T02:54:23.564Z,17.40
2019-05-17T02:56:53.833Z,16.03
2019-05-17T02:59:23.207Z,17.47
2019-05-17T03:01:52.733Z,15.57
2019-05-17T03:04:23.358Z,17.13
2019-05-17T03:06:53.325Z,19.20
2019-05-17T03:09:22.868Z,19.67
2019-05-17T03:11:52.912Z,16.93
2019-05-17T03:14:22.797Z,19.10
2019-05-17T03:16:49.414Z,19.03
2019-05-17T03:19:17.205Z,17.87
2019-05-17T03:21:45.137Z,17.73
2019-05-17T03:24:13.743Z,31.37
2019-05-17T03:26:42.998Z,30.57
2019-05-17T03:29:13.771Z,31.07
2019-05-17T03:31:49.070Z,31.37
2019-05-17T03:34:17.084Z,32.67
2019-05-17T03:36:46.589Z,40.23
2019-05-17T03:39:12.995Z,37.23
2019-05-17T03:41:42.851Z,36.23
2019-05-17T03:44:13.660Z,34.17
2019-05-17T03:46:42.618Z,32.53
2019-05-17T03:49:13.057Z,26.90
2019-05-17T03:51:42.611Z,31.07
2019-05-17T03:54:13.503Z,30.37
2019-05-17T03:56:42.719Z,44.97
2019-05-17T03:59:12.861Z,36.73
2019-05-17T04:01:43.315Z,36.70
2019-05-17T04:04:12.814Z,39.50
2019-05-17T04:06:39.480Z,33.50
2019-05-17T04:09:07.925Z,33.30
2019-05-17T04:11:36.682Z,28.63
2019-05-17T04:14:05.050Z,32.07
2019-05-17T04:16:33.892Z,30.27
2019-05-17T04:19:03.051Z,29.07
2019-05-17T04:21:34.257Z,34.63
2019-05-17T04:24:03.473Z,34.10
2019-05-17T04:26:32.533Z,35.47
2019-05-17T04:29:03.283Z,31.70
2019-05-17T04:31:34.784Z,33.80
2019-05-17T04:34:02.973Z,32.83
2019-05-17T04:36:32.322Z,30.07
2019-05-17T04:39:02.441Z,31.13
2019-05-17T04:41:41.484Z,31.77
2019-05-17T04:44:02.846Z,39.27
2019-05-17T04:46:32.711Z,32.60
2019-05-17T04:49:02.910Z,38.60
2019-05-17T04:51:32.258Z,40.97
2019-05-17T04:54:03.282Z,30.10
2019-05-17T04:56:33.292Z,32.23
2019-05-17T04:59:03.237Z,30.97
2019-05-17T05:01:32.978Z,31.87
2019-05-17T05:04:03.418Z,33.17
2019-05-17T05:06:32.907Z,32.30
2019-05-17T05:09:02.646Z,32.23
2019-05-17T05:11:32.846Z,35.77
2019-05-17T05:14:02.840Z,32.77
2019-05-17T05:16:32.056Z,31.80
2019-05-17T05:19:02.622Z,32.93
2019-05-17T05:21:32.174Z,40.47
2019-05-17T05:23:59.730Z,36.30
2019-05-17T05:26:27.473Z,38.03
2019-05-17T05:28:55.261Z,35.07
2019-05-17T05:31:23.142Z,36.43
2019-05-17T05:33:52.224Z,39.43
2019-05-17T05:36:22.081Z,39.43
2019-05-17T05:38:51.543Z,42.70
2019-05-17T05:41:19.367Z,38.77
2019-05-17T05:43:47.152Z,37.30
2019-05-17T05:46:14.998Z,36.43
2019-05-17T05:48:42.840Z,36.67
2019-05-17T05:51:13.455Z,42.47
2019-05-17T05:53:42.924Z,39.47
2019-05-17T05:56:13.329Z,36.53
2019-05-17T05:58:42.682Z,39.53
2019-05-17T06:01:12.578Z,37.03
2019-05-17T06:03:41.443Z,39.97
2019-05-17T06:06:12.176Z,37.90
2019-05-17T06:08:41.490Z,38.93
2019-05-17T06:11:12.121Z,36.50
2019-05-17T06:13:41.754Z,40.37
2019-05-17T06:16:11.806Z,41.73
2019-05-17T06:18:39.358Z,35.27
2019-05-17T06:21:07.144Z,36.00
2019-05-17T06:23:34.913Z,40.60
2019-05-17T06:26:04.360Z,36.97
2019-05-17T06:28:32.508Z,43.47
2019-05-17T06:31:02.661Z,41.10
2019-05-17T06:33:31.831Z,40.83
2019-05-17T06:36:02.606Z,39.80
2019-05-17T06:38:32.637Z,41.00
2019-05-17T06:41:01.648Z,39.73
2019-05-17T06:43:32.061Z,44.67
2019-05-17T06:46:01.567Z,42.00
2019-05-17T06:48:31.601Z,41.57
2019-05-17T06:50:59.178Z,39.60
2019-05-17T06:53:26.913Z,40.87
2019-05-17T06:55:54.896Z,42.93
2019-05-17T06:58:22.622Z,42.70
2019-05-17T07:00:50.404Z,45.20
2019-05-17T07:03:19.855Z,48.00
2019-05-17T07:05:50.545Z,43.77
2019-05-17T07:08:20.123Z,51.43
2019-05-17T07:10:50.122Z,44.40
2019-05-17T07:13:19.677Z,46.83
2019-05-17T07:15:50.197Z,45.00
2019-05-17T07:18:19.413Z,43.73
2019-05-17T07:20:50.095Z,47.33
2019-05-17T07:23:19.683Z,41.13
2019-05-17T07:25:50.166Z,41.60
2019-05-17T07:28:19.788Z,45.67
2019-05-17T07:30:47.150Z,41.30
2019-05-17T07:33:15.006Z,40.23
2019-05-17T07:35:42.834Z,43.43
2019-05-17T07:38:11.296Z,40.30
2019-05-17T07:40:39.900Z,38.93
2019-05-17T07:43:13.782Z,40.17
2019-05-17T07:45:40.170Z,40.53
2019-05-17T07:48:09.815Z,38.97
2019-05-17T07:50:39.593Z,39.10
2019-05-17T07:53:06.988Z,38.73
2019-05-17T07:55:34.798Z,37.63
2019-05-17T07:58:02.632Z,37.10
2019-05-17T08:00:30.653Z,38.37
2019-05-17T08:02:59.911Z,37.67
2019-05-17T08:05:29.587Z,30.53
2019-05-17T08:08:00.010Z,30.83
2019-05-17T08:10:29.677Z,29.40
2019-05-17T08:12:59.783Z,30.40
2019-05-17T08:15:27.135Z,24.53
2019-05-17T08:17:54.853Z,25.53
2019-05-17T08:20:22.902Z,26.43
2019-05-17T08:22:50.678Z,20.47
2019-05-17T08:25:20.016Z,17.87
2019-05-17T08:27:50.177Z,15.17
2019-05-17T08:30:20.098Z,14.13
2019-05-17T08:32:50.548Z,13.63
2019-05-17T08:35:19.831Z,14.70
2019-05-17T08:37:49.931Z,12.47
2019-05-17T08:40:19.988Z,13.03
2019-05-17T08:42:49.731Z,10.80
2019-05-17T08:45:17.485Z,10.30
2019-05-17T08:47:45.401Z,11.03
2019-05-17T08:50:13.437Z,10.40
2019-05-17T08:52:41.637Z,10.17
2019-05-17T08:55:10.039Z,10.13
2019-05-17T08:57:39.996Z,11.47
2019-05-17T09:00:10.528Z,10.27
2019-05-17T09:02:40.478Z,10.43
2019-05-17T09:05:09.855Z,11.10
2019-05-17T09:07:39.854Z,11.63
2019-05-17T09:10:10.026Z,13.93
2019-05-17T09:12:37.639Z,12.23
2019-05-17T09:15:06.699Z,10.93
2019-05-17T09:17:34.505Z,9.20
2019-05-17T09:20:02.588Z,12.57
2019-05-17T09:22:30.678Z,8.77
2019-05-17T09:24:59.615Z,11.40
2019-05-17T09:27:30.000Z,12.83
2019-05-17T09:29:57.355Z,11.43
2019-05-17T09:32:25.233Z,11.87
2019-05-17T09:34:52.936Z,12.07
2019-05-17T09:37:22.621Z,13.07
2019-05-17T09:39:50.425Z,12.63
2019-05-17T09:42:20.964Z,12.80
2019-05-17T09:44:49.668Z,12.73
2019-05-17T09:47:20.566Z,11.20
2019-05-17T09:49:50.164Z,13.27
2019-05-17T09:52:20.044Z,16.37
2019-05-17T09:54:50.195Z,13.40
2019-05-17T09:57:20.266Z,13.20
2019-05-17T09:59:49.489Z,12.73
2019-05-17T10:02:17.304Z,14.57
2019-05-17T10:04:45.235Z,13.20
2019-05-17T10:07:13.066Z,13.43
2019-05-17T10:09:40.756Z,12.93
2019-05-17T10:12:09.595Z,14.20
2019-05-17T10:14:37.658Z,11.83
2019-05-17T10:17:05.647Z,12.30
2019-05-17T10:19:33.462Z,11.93
2019-05-17T10:22:01.910Z,13.97
2019-05-17T10:24:37.937Z,12.93
2019-05-17T10:26:59.627Z,13.77
2019-05-17T10:29:29.861Z,10.47
2019-05-17T10:31:57.097Z,11.60
2019-05-17T10:34:26.513Z,13.53
2019-05-17T10:36:55.084Z,12.80
2019-05-17T10:39:22.909Z,20.50
2019-05-17T10:41:50.796Z,12.40
2019-05-17T10:44:19.881Z,13.07
2019-05-17T10:46:47.865Z,12.93
2019-05-17T10:49:15.622Z,13.80
2019-05-17T10:51:43.493Z,14.33
2019-05-17T10:54:11.208Z,12.53
2019-05-17T10:56:39.542Z,14.17
2019-05-17T10:59:09.749Z,12.80
2019-05-17T11:01:37.286Z,16.30
2019-05-17T11:04:05.175Z,13.07
2019-05-17T11:06:32.904Z,13.40
2019-05-17T11:09:00.700Z,14.13
2019-05-17T11:11:28.428Z,14.13
2019-05-17T11:13:56.188Z,13.40
2019-05-17T11:16:24.710Z,14.13
2019-05-17T11:18:52.489Z,13.80
2019-05-17T11:21:20.367Z,13.80
2019-05-17T11:23:48.298Z,14.13
2019-05-17T11:26:16.006Z,15.57
2019-05-17T11:28:43.801Z,15.20
2019-05-17T11:31:11.614Z,14.93
2019-05-17T11:33:39.906Z,14.33
2019-05-17T11:36:07.832Z,14.47
2019-05-17T11:38:35.610Z,15.43
2019-05-17T11:41:19.883Z,17.07
2019-05-17T11:43:33.215Z,14.50
2019-05-17T11:46:00.939Z,15.33
2019-05-17T11:48:28.783Z,15.90
2019-05-17T11:50:56.603Z,15.33
2019-05-17T11:53:24.474Z,14.93
2019-05-17T11:55:53.251Z,16.33
2019-05-17T11:58:21.083Z,15.63
2019-05-17T12:00:48.925Z,15.90
2019-05-17T12:03:16.794Z,16.90
2019-05-17T12:05:44.494Z,15.33
2019-05-17T12:08:12.977Z,17.07
2019-05-17T12:10:41.436Z,17.57
2019-05-17T12:13:09.476Z,17.70
2019-05-17T12:15:44.947Z,17.47
2019-05-17T12:18:06.932Z,16.87
2019-05-17T12:20:34.991Z,15.47
2019-05-17T12:23:02.914Z,15.93
2019-05-17T12:25:30.837Z,16.47
2019-05-17T12:27:59.009Z,17.73
2019-05-17T12:30:26.837Z,17.27
2019-05-17T12:32:54.595Z,18.50
2019-05-17T12:35:22.415Z,16.80
2019-05-17T12:37:50.248Z,15.93
2019-05-17T12:40:18.900Z,16.73
2019-05-17T12:42:46.786Z,15.63
2019-05-17T12:45:14.719Z,16.23
2019-05-17T12:47:42.421Z,15.80
2019-05-17T12:50:10.711Z,17.00
2019-05-17T12:52:38.582Z,15.37
2019-05-17T12:55:06.948Z,15.30
2019-05-17T12:57:34.952Z,14.43
2019-05-17T13:00:03.128Z,15.07
2019-05-17T13:02:30.965Z,14.37
2019-05-17T13:04:58.791Z,15.37
2019-05-17T13:07:26.598Z,14.83
2019-05-17T13:09:55.749Z,15.23
2019-05-17T13:12:23.475Z,14.47
2019-05-17T13:14:52.281Z,16.83
2019-05-17T13:17:19.968Z,13.23
2019-05-17T13:19:47.730Z,14.17
2019-05-17T13:22:15.617Z,14.23
2019-05-17T13:24:43.423Z,13.27
2019-05-17T13:27:11.170Z,13.43
2019-05-17T13:29:39.537Z,14.57
2019-05-17T13:32:07.261Z,13.83
2019-05-17T13:34:35.108Z,13.90
2019-05-17T13:37:02.931Z,15.10
2019-05-17T13:39:31.341Z,16.20
2019-05-17T13:41:59.153Z,17.53
2019-05-17T13:44:27.002Z,15.67
2019-05-17T13:46:54.711Z,14.73
2019-05-17T13:49:22.557Z,15.10
2019-05-17T13:51:50.380Z,15.60
2019-05-17T13:54:18.165Z,15.40
2019-05-17T13:56:46.565Z,17.90
2019-05-17T13:59:14.327Z,16.90
2019-05-17T14:01:42.209Z,16.27
2019-05-17T14:04:09.943Z,17.70
2019-05-17T14:06:37.687Z,15.77
2019-05-17T14:09:06.694Z,15.23
2019-05-17T14:11:34.598Z,16.87
2019-05-17T14:14:03.398Z,15.17
2019-05-17T14:16:34.437Z,13.73
2019-05-17T14:19:00.833Z,15.37
2019-05-17T14:21:28.578Z,15.70
2019-05-17T14:23:56.478Z,14.33
2019-05-17T14:26:25.099Z,14.97
2019-05-17T14:28:52.915Z,14.67
2019-05-17T14:31:21.404Z,16.07
2019-05-17T14:33:49.154Z,14.70
2019-05-17T14:36:16.896Z,15.97
2019-05-17T14:38:44.618Z,15.53
2019-05-17T14:41:12.384Z,16.33
2019-05-17T14:43:40.108Z,16.53
2019-05-17T14:46:08.002Z,16.80
2019-05-17T14:48:35.803Z,15.60
2019-05-17T14:51:03.749Z,15.53
2019-05-17T14:53:31.962Z,15.50
2019-05-17T14:55:59.732Z,14.60
2019-05-17T14:58:27.444Z,14.67
2019-05-17T15:00:55.335Z,14.07
2019-05-17T15:03:23.602Z,15.93
2019-05-17T15:05:51.367Z,17.57
2019-05-17T15:08:19.297Z,15.23
2019-05-17T15:10:47.078Z,14.40
2019-05-17T15:13:14.882Z,15.57
2019-05-17T15:15:42.649Z,14.80
2019-05-17T15:18:10.466Z,15.97
2019-05-17T15:20:38.211Z,15.03
2019-05-17T15:23:06.085Z,15.83
2019-05-17T15:25:33.919Z,15.07
2019-05-17T15:28:01.629Z,15.13
2019-05-17T15:30:29.909Z,15.43
2019-05-17T15:32:57.596Z,15.53
2019-05-17T15:35:25.477Z,15.70
2019-05-17T15:37:53.368Z,15.50
2019-05-17T15:40:21.279Z,14.70
2019-05-17T15:42:49.923Z,16.23
2019-05-17T15:45:17.779Z,15.83
2019-05-17T15:47:45.545Z,17.33
2019-05-17T15:50:13.550Z,15.83
2019-05-17T15:52:41.403Z,15.47
2019-05-17T15:55:10.324Z,15.90
2019-05-17T15:57:39.112Z,15.20
2019-05-17T16:00:07.821Z,14.93
2019-05-17T16:02:35.566Z,13.43
2019-05-17T16:05:04.569Z,14.10
2019-05-17T16:07:32.287Z,14.97
2019-05-17T16:10:00.041Z,14.07
2019-05-17T16:12:27.809Z,13.80
2019-05-17T16:14:55.563Z,14.10
2019-05-17T16:17:23.823Z,13.63
2019-05-17T16:19:51.633Z,30.57
2019-05-17T16:22:19.445Z,13.00
2019-05-17T16:24:47.425Z,13.70
2019-05-17T16:27:15.447Z,13.30
2019-05-17T16:29:43.179Z,12.10
2019-05-17T16:32:10.972Z,13.50
2019-05-17T16:34:38.674Z,12.83
2019-05-17T16:37:06.424Z,12.87
2019-05-17T16:39:34.244Z,12.70
2019-05-17T16:42:02.126Z,11.70
2019-05-17T16:44:29.851Z,12.80
2019-05-17T16:46:57.815Z,11.97
2019-05-17T16:49:28.400Z,12.13
2019-05-17T16:51:55.652Z,12.13
2019-05-17T16:54:23.361Z,13.17
2019-05-17T16:56:51.162Z,12.30
2019-05-17T16:59:18.950Z,11.60
2019-05-17T17:01:46.786Z,12.97
2019-05-17T17:04:18.224Z,12.27
2019-05-17T17:06:46.618Z,11.93
2019-05-17T17:09:14.420Z,11.90
2019-05-17T17:11:42.147Z,11.97
2019-05-17T17:14:10.136Z,13.90
2019-05-17T17:16:37.905Z,11.70
2019-05-17T17:19:05.686Z,11.07
2019-05-17T17:21:33.716Z,12.00
2019-05-17T17:24:01.642Z,12.60
2019-05-17T17:26:29.652Z,11.43
2019-05-17T17:28:57.537Z,11.83
2019-05-17T17:31:25.663Z,11.73
2019-05-17T17:33:56.153Z,12.33
2019-05-17T17:36:23.978Z,11.73
2019-05-17T17:38:51.759Z,12.53
2019-05-17T17:41:19.654Z,13.17
2019-05-17T17:43:58.105Z,13.77
2019-05-17T17:46:17.124Z,13.73
2019-05-17T17:48:45.868Z,12.50
2019-05-17T17:51:13.904Z,13.20
2019-05-17T17:53:41.659Z,13.83
2019-05-17T17:56:13.391Z,11.93
2019-05-17T17:58:40.593Z,13.27
2019-05-17T18:01:08.445Z,14.47
2019-05-17T18:03:36.757Z,13.37
2019-05-17T18:06:05.015Z,14.47
2019-05-17T18:08:34.711Z,15.23
2019-05-17T18:11:02.686Z,15.27
2019-05-17T18:13:30.529Z,15.10
2019-05-17T18:15:58.349Z,16.70
2019-05-17T18:18:26.103Z,17.87
2019-05-17T18:20:53.818Z,18.20
2019-05-17T18:23:23.649Z,16.00
2019-05-17T18:25:51.723Z,15.07
2019-05-17T18:28:20.291Z,17.30
2019-05-17T18:30:48.047Z,20.10
2019-05-17T18:33:16.548Z,19.90
2019-05-17T18:35:44.522Z,23.10
2019-05-17T18:38:15.671Z,18.93
2019-05-17T18:40:43.572Z,21.17
2019-05-17T18:43:11.285Z,22.53
2019-05-17T18:45:39.049Z,19.73
2019-05-17T18:48:07.355Z,19.23
2019-05-17T18:50:35.406Z,21.47
2019-05-17T18:53:03.814Z,22.70
2019-05-17T18:55:32.396Z,22.20
2019-05-17T18:58:00.901Z,22.00
2019-05-17T19:00:28.827Z,20.00
2019-05-17T19:02:56.533Z,127.50
2019-05-17T19:05:24.410Z,258.67
2019-05-17T19:07:52.145Z,300.73
2019-05-17T19:10:20.137Z,74.80
2019-05-17T19:12:48.045Z,33.93
2019-05-17T19:15:17.031Z,33.80
2019-05-17T19:17:44.745Z,27.47
2019-05-17T19:20:14.401Z,223.43
2019-05-17T19:22:42.371Z,314.37
2019-05-17T19:25:11.007Z,72.03
2019-05-17T19:27:38.920Z,31.80
2019-05-17T19:30:09.171Z,369.47
2019-05-17T19:32:37.131Z,305.93
2019-05-17T19:35:06.263Z,54.53
2019-05-17T19:37:34.577Z,27.37
2019-05-17T19:40:03.595Z,32.30
2019-05-17T19:42:31.674Z,27.20
2019-05-17T19:44:59.782Z,27.73
2019-05-17T19:47:27.544Z,25.30
2019-05-17T19:49:55.333Z,28.80
2019-05-17T19:52:23.321Z,150.93
2019-05-17T19:54:51.091Z,170.43
2019-05-17T19:57:18.821Z,39.53
2019-05-17T19:59:46.580Z,40.50
2019-05-17T20:02:14.428Z,268.17
2019-05-17T20:04:42.173Z,162.93
2019-05-17T20:07:09.982Z,55.93
2019-05-17T20:09:37.685Z,44.27
2019-05-17T20:12:05.571Z,62.00
2019-05-17T20:14:33.262Z,60.10
2019-05-17T20:17:01.629Z,49.80
2019-05-17T20:19:29.348Z,49.17
2019-05-17T20:21:57.350Z,48.80
2019-05-17T20:24:25.128Z,37.87
2019-05-17T20:26:53.455Z,35.33
2019-05-17T20:29:21.165Z,39.93
2019-05-17T20:31:48.992Z,36.90
2019-05-17T20:34:16.706Z,36.57
2019-05-17T20:36:44.577Z,34.57
2019-05-17T20:39:12.487Z,33.17
2019-05-17T20:41:40.254Z,337.17
2019-05-17T20:44:08.045Z,421.77
2019-05-17T20:46:35.920Z,84.10
2019-05-17T20:49:03.746Z,50.13
2019-05-17T20:51:31.585Z,42.97
2019-05-17T20:53:59.413Z,37.43
2019-05-17T20:56:32.938Z,36.30
2019-05-17T20:58:57.523Z,31.37
2019-05-17T21:01:25.273Z,26.67
2019-05-17T21:03:53.082Z,25.90
2019-05-17T21:06:21.785Z,26.90
2019-05-17T21:08:49.527Z,24.63
2019-05-17T21:11:17.411Z,26.10
2019-05-17T21:13:45.343Z,23.87
2019-05-17T21:16:13.115Z,26.33
2019-05-17T21:18:40.999Z,26.00
2019-05-17T21:21:08.798Z,25.27
2019-05-17T21:23:36.605Z,29.67
2019-05-17T21:26:04.582Z,29.10
2019-05-17T21:28:32.333Z,25.03
2019-05-17T21:31:00.161Z,26.30
2019-05-17T21:33:28.019Z,27.07
2019-05-17T21:35:55.738Z,53.87
2019-05-17T21:38:24.096Z,63.47
2019-05-17T21:40:51.910Z,44.60
2019-05-17T21:43:20.290Z,41.57
2019-05-17T21:46:01.088Z,60.20
2019-05-17T21:48:17.823Z,59.37
2019-05-17T21:50:45.637Z,61.37
2019-05-17T21:53:13.481Z,119.93
2019-05-17T21:55:41.276Z,77.90
2019-05-17T21:58:09.988Z,55.87
2019-05-17T22:01:21.953Z,53.37
2019-05-17T22:03:49.823Z,44.90
2019-05-17T22:06:17.639Z,38.27
2019-05-17T22:08:45.663Z,35.13
2019-05-17T22:11:13.440Z,35.50
2019-05-17T22:13:41.898Z,34.20
2019-05-17T22:16:19.189Z,38.07
2019-05-17T22:18:39.613Z,33.97
2019-05-17T22:21:08.018Z,37.50
2019-05-17T22:23:35.956Z,39.10
2019-05-17T22:26:04.088Z,36.57
2019-05-17T22:28:32.814Z,34.17
2019-05-17T22:31:00.501Z,32.73
2019-05-17T22:33:28.416Z,33.17
2019-05-17T22:35:56.184Z,34.93
2019-05-17T22:38:24.002Z,41.93
2019-05-17T22:40:51.808Z,39.00
2019-05-17T22:43:19.556Z,37.10
2019-05-17T22:45:47.483Z,33.73
2019-05-17T22:48:16.148Z,38.27
2019-05-17T22:50:44.373Z,37.00
2019-05-17T22:53:13.395Z,35.93
2019-05-17T22:55:41.287Z,33.57
2019-05-17T22:58:09.041Z,34.63
2019-05-17T23:00:36.811Z,30.43
2019-05-17T23:03:04.666Z,28.97
2019-05-17T23:05:32.639Z,25.00
2019-05-17T23:08:00.383Z,25.73
2019-05-17T23:10:28.358Z,24.13
2019-05-17T23:12:56.203Z,25.70
2019-05-17T23:15:26.018Z,25.40
2019-05-17T23:17:53.760Z,23.77
2019-05-17T23:20:21.672Z,24.93
2019-05-17T23:22:49.398Z,24.17
2019-05-17T23:25:17.189Z,26.47
2019-05-17T23:27:44.964Z,25.47
2019-05-17T23:30:14.091Z,25.80
2019-05-17T23:32:41.831Z,28.07
2019-05-17T23:35:09.949Z,27.10
2019-05-17T23:37:37.660Z,30.07
2019-05-17T23:40:05.759Z,27.73
2019-05-17T23:42:33.560Z,30.33
2019-05-17T23:45:01.416Z,28.73
2019-05-17T23:47:29.185Z,30.03
2019-05-17T23:49:56.997Z,25.23
2019-05-17T23:52:24.772Z,27.50
2019-05-17T23:54:52.562Z,26.60
2019-05-17T23:57:21.025Z,26.83
2019-05-17T23:59:48.826Z,28.83
